Time;durP1;ratioP1;P1;durP2;ratioP2;P2;SDS_P1;SDS_P2;PMS_P1;PMS_P2;Temp;Humidity;BMP_temperature;BMP_pressure;BME280_temperature;BME280_humidity;BME280_pressure;Samples;Min_cycle;Max_cycle;Signal;HPM_P1;HPM_P2
2022/04/06 00:01:36;;;;;;;22.73;9.73;;;;;;;;;;5029942;28;20041;-62
2022/04/06 00:04:03;;;;;;;27.67;10.18;;;;;;;;;;5030192;28;20079;-62
2022/04/06 00:06:29;;;;;;;27.98;10.80;;;;;;;;;;5031540;28;20053;-62
2022/04/06 00:08:55;;;;;;;23.48;10.63;;;;;;;;;;5027909;28;20041;-62
2022/04/06 00:11:21;;;;;;;27.90;9.57;;;;;;;;;;5030819;28;20072;-62
2022/04/06 00:13:48;;;;;;;27.83;10.52;;;;;;;;;;5030548;28;20063;-62
2022/04/06 00:16:14;;;;;;;31.00;10.10;;;;;;;;;;5030190;28;20455;-62
2022/04/06 00:18:40;;;;;;;25.20;11.15;;;;;;;;;;5029665;28;20041;-62
2022/04/06 00:21:07;;;;;;;40.60;11.85;;;;;;;;;;5029527;28;20030;-62
2022/04/06 00:23:33;;;;;;;40.53;10.55;;;;;;;;;;5030204;28;20068;-62
2022/04/06 00:25:59;;;;;;;35.17;12.00;;;;;;;;;;5045428;28;20045;-62
2022/04/06 00:28:26;;;;;;;34.60;12.90;;;;;;;;;;5029492;28;20052;-62
2022/04/06 00:30:53;;;;;;;34.88;12.30;;;;;;;;;;5028225;28;20172;-62
2022/04/06 00:33:19;;;;;;;34.88;13.10;;;;;;;;;;5061844;28;20088;-62
2022/04/06 00:35:45;;;;;;;41.65;12.65;;;;;;;;;;5013667;28;20349;-62
2022/04/06 00:38:11;;;;;;;42.15;12.25;;;;;;;;;;5033271;28;20374;-62
2022/04/06 00:40:38;;;;;;;28.25;11.68;;;;;;;;;;5033800;28;20037;-62
2022/04/06 00:43:06;;;;;;;35.58;11.60;;;;;;;;;;5031358;28;20088;-62
2022/04/06 00:45:32;;;;;;;34.95;12.27;;;;;;;;;;5065648;28;20046;-63
2022/04/06 00:47:58;;;;;;;32.03;11.75;;;;;;;;;;5064982;28;20072;-62
2022/04/06 00:50:25;;;;;;;27.20;11.07;;;;;;;;;;5031203;28;20442;-62
2022/04/06 00:52:55;;;;;;;30.63;9.68;;;;;;;;;;5032244;28;20033;-62
2022/04/06 00:55:22;;;;;;;28.23;10.45;;;;;;;;;;5031155;28;20130;-62
2022/04/06 00:57:49;;;;;;;29.45;10.20;;;;;;;;;;5032830;28;20512;-62
2022/04/06 01:00:15;;;;;;;25.75;8.55;;;;;;;;;;5033166;28;20067;-62
2022/04/06 01:02:41;;;;;;;24.75;8.32;;;;;;;;;;5032179;28;20049;-62
2022/04/06 01:05:08;;;;;;;24.45;8.45;;;;;;;;;;5032491;28;20045;-62
2022/04/06 01:07:34;;;;;;;22.88;8.02;;;;;;;;;;5032296;28;20140;-62
2022/04/06 01:10:01;;;;;;;22.85;6.90;;;;;;;;;;5032788;28;20076;-62
2022/04/06 01:12:27;;;;;;;21.63;7.22;;;;;;;;;;5030193;28;20351;-62
2022/04/06 01:14:54;;;;;;;20.63;6.78;;;;;;;;;;5030243;28;20117;-62
2022/04/06 01:17:21;;;;;;;21.05;6.45;;;;;;;;;;5030068;28;20049;-62
2022/04/06 01:19:48;;;;;;;23.02;5.90;;;;;;;;;;5033102;28;20038;-62
2022/04/06 01:22:15;;;;;;;20.20;6.72;;;;;;;;;;5065244;28;20496;-62
2022/04/06 01:24:43;;;;;;;24.65;6.03;;;;;;;;;;5031840;28;20109;-62
2022/04/06 01:27:09;;;;;;;23.67;5.65;;;;;;;;;;5033201;28;20064;-62
2022/04/06 01:29:36;;;;;;;20.38;5.93;;;;;;;;;;5064413;28;20048;-62
2022/04/06 01:32:09;;;;;;;18.80;5.50;;;;;;;;;;5032128;28;20057;-62
2022/04/06 01:34:35;;;;;;;17.77;5.32;;;;;;;;;;5039097;28;20053;-62
2022/04/06 01:37:03;;;;;;;19.15;6.03;;;;;;;;;;5052769;28;20064;-62
2022/04/06 01:39:30;;;;;;;19.80;6.40;;;;;;;;;;5051520;28;20404;-62
2022/04/06 01:41:56;;;;;;;22.20;5.60;;;;;;;;;;5052538;28;20036;-62
2022/04/06 01:44:22;;;;;;;18.88;5.22;;;;;;;;;;5052344;28;20047;-62
2022/04/06 01:46:48;;;;;;;17.67;4.80;;;;;;;;;;5050454;28;20140;-62
2022/04/06 01:52:12;;;;;;;17.65;3.92;;;;;;;;;;5067672;28;20223;-62
2022/04/06 01:54:42;;;;;;;18.58;4.53;;;;;;;;;;5032546;28;20051;-62
2022/04/06 01:57:09;;;;;;;13.70;3.38;;;;;;;;;;5052230;28;20041;-62
2022/04/06 01:59:35;;;;;;;16.45;4.45;;;;;;;;;;5065304;28;20583;-62
2022/04/06 02:02:01;;;;;;;13.57;3.38;;;;;;;;;;5052150;28;20033;-62
2022/04/06 02:04:28;;;;;;;15.40;3.50;;;;;;;;;;5067493;28;20053;-62
2022/04/06 02:06:54;;;;;;;16.92;3.30;;;;;;;;;;5051041;28;20045;-62
2022/04/06 02:09:20;;;;;;;11.48;3.40;;;;;;;;;;5051757;28;20040;-62
2022/04/06 02:11:47;;;;;;;12.30;3.10;;;;;;;;;;5050837;28;20139;-62
2022/04/06 02:14:13;;;;;;;13.75;3.42;;;;;;;;;;5051217;28;20071;-62
2022/04/06 02:16:40;;;;;;;14.93;3.15;;;;;;;;;;5050831;28;20059;-62
2022/04/06 02:19:06;;;;;;;13.27;4.25;;;;;;;;;;5033174;28;20527;-62
2022/04/06 02:21:32;;;;;;;14.57;3.25;;;;;;;;;;5047501;28;20077;-62
2022/04/06 02:23:59;;;;;;;10.20;2.55;;;;;;;;;;5048270;28;20041;-62
2022/04/06 02:26:27;;;;;;;10.65;2.72;;;;;;;;;;5049623;28;20037;-62
2022/04/06 02:28:53;;;;;;;12.30;3.08;;;;;;;;;;5051321;28;20110;-62
2022/04/06 02:31:20;;;;;;;12.35;3.28;;;;;;;;;;5048332;28;20037;-62
2022/04/06 02:33:46;;;;;;;9.88;3.15;;;;;;;;;;5051744;28;20068;-62
2022/04/06 02:36:12;;;;;;;15.32;3.28;;;;;;;;;;5011370;28;20136;-63
2022/04/06 02:38:39;;;;;;;12.88;2.90;;;;;;;;;;5011462;28;20048;-62
2022/04/06 02:41:07;;;;;;;11.23;2.50;;;;;;;;;;5011542;28;20042;-62
2022/04/06 02:43:33;;;;;;;15.25;3.45;;;;;;;;;;5010833;28;20042;-62
2022/04/06 02:45:59;;;;;;;13.10;3.03;;;;;;;;;;5007965;28;20438;-62
2022/04/06 02:48:25;;;;;;;12.57;3.45;;;;;;;;;;5011328;28;20038;-62
2022/04/06 02:50:51;;;;;;;16.02;3.15;;;;;;;;;;5010651;28;20038;-62
2022/04/06 02:53:18;;;;;;;11.40;3.20;;;;;;;;;;5009814;28;20100;-62
2022/04/06 02:55:44;;;;;;;16.10;3.17;;;;;;;;;;5010298;28;20398;-62
2022/04/06 02:58:10;;;;;;;9.52;2.80;;;;;;;;;;5042006;28;20045;-62
2022/04/06 03:00:36;;;;;;;18.75;3.35;;;;;;;;;;5011479;28;20053;-62
2022/04/06 03:03:03;;;;;;;10.85;3.45;;;;;;;;;;5010569;28;20474;-62
2022/04/06 03:05:29;;;;;;;11.38;3.92;;;;;;;;;;5010165;28;20505;-62
2022/04/06 03:07:56;;;;;;;12.50;3.95;;;;;;;;;;5042957;28;20426;-62
2022/04/06 03:10:22;;;;;;;14.45;3.95;;;;;;;;;;5010334;28;20095;-62
2022/04/06 03:12:48;;;;;;;16.73;4.45;;;;;;;;;;5042703;28;20056;-62
2022/04/06 03:15:15;;;;;;;13.23;5.07;;;;;;;;;;5011353;28;20397;-62
2022/04/06 03:17:42;;;;;;;16.15;4.38;;;;;;;;;;5010696;28;20038;-62
2022/04/06 03:20:09;;;;;;;15.60;4.50;;;;;;;;;;5011109;28;20038;-62
2022/04/06 03:22:35;;;;;;;15.45;4.80;;;;;;;;;;5011064;28;20081;-62
2022/04/06 03:25:01;;;;;;;16.30;4.50;;;;;;;;;;5009581;28;20128;-61
2022/04/06 03:27:27;;;;;;;14.35;4.85;;;;;;;;;;5038697;28;20076;-62
2022/04/06 03:29:54;;;;;;;21.15;5.57;;;;;;;;;;5008939;28;20037;-62
2022/04/06 03:32:20;;;;;;;13.68;5.18;;;;;;;;;;5007502;28;20405;-62
2022/04/06 03:34:47;;;;;;;15.45;6.05;;;;;;;;;;5023613;28;20116;-62
2022/04/06 03:37:13;;;;;;;18.92;5.63;;;;;;;;;;5050504;28;20059;-62
2022/04/06 03:39:39;;;;;;;19.83;5.90;;;;;;;;;;5049323;28;20120;-62
2022/04/06 03:42:05;;;;;;;17.85;6.25;;;;;;;;;;5050583;28;20056;-62
2022/04/06 03:44:31;;;;;;;18.98;6.00;;;;;;;;;;5050355;28;20377;-62
2022/04/06 03:46:57;;;;;;;16.35;5.18;;;;;;;;;;5049726;28;20128;-62
2022/04/06 03:49:24;;;;;;;23.63;7.47;;;;;;;;;;5050499;28;20044;-62
2022/04/06 03:51:50;;;;;;;19.65;5.63;;;;;;;;;;5049969;28;20045;-62
2022/04/06 03:54:16;;;;;;;21.83;6.07;;;;;;;;;;5050683;28;20041;-62
2022/04/06 03:56:42;;;;;;;27.48;5.63;;;;;;;;;;5066216;28;20383;-62
2022/04/06 03:59:08;;;;;;;23.98;7.63;;;;;;;;;;5049688;28;20079;-62
2022/04/06 04:01:35;;;;;;;22.45;6.30;;;;;;;;;;5050157;28;20082;-62
2022/04/06 04:04:03;;;;;;;23.67;5.63;;;;;;;;;;5050154;28;20041;-62
2022/04/06 04:06:29;;;;;;;23.13;5.97;;;;;;;;;;5049525;28;20053;-62
2022/04/06 04:08:55;;;;;;;15.98;6.15;;;;;;;;;;5065606;28;20045;-62
2022/04/06 04:11:21;;;;;;;20.67;5.72;;;;;;;;;;5036064;28;20052;-62
2022/04/06 04:13:47;;;;;;;24.33;6.95;;;;;;;;;;5069044;28;20072;-62
2022/04/06 04:16:14;;;;;;;25.83;6.72;;;;;;;;;;5037338;28;20488;-62
2022/04/06 04:18:41;;;;;;;27.20;6.43;;;;;;;;;;5054239;28;20041;-62
2022/04/06 04:23:52;;;;;;;28.00;6.32;;;;;;;;;;5069386;28;20057;-62
2022/04/06 04:26:18;;;;;;;27.10;6.68;;;;;;;;;;5035736;28;20294;-62
2022/04/06 04:28:44;;;;;;;27.45;7.38;;;;;;;;;;5070548;28;20049;-62
2022/04/06 04:31:10;;;;;;;21.70;6.28;;;;;;;;;;5053670;28;20045;-62
2022/04/06 04:33:36;;;;;;;25.08;6.55;;;;;;;;;;5072551;28;20048;-62
2022/04/06 04:36:02;;;;;;;19.50;5.90;;;;;;;;;;5070272;28;20058;-62
2022/04/06 04:38:30;;;;;;;26.50;6.80;;;;;;;;;;5052158;28;20084;-62
2022/04/06 04:40:57;;;;;;;30.73;7.22;;;;;;;;;;5053335;28;20048;-62
2022/04/06 04:43:23;;;;;;;25.05;7.28;;;;;;;;;;5053012;28;20060;-62
2022/04/06 04:45:49;;;;;;;25.75;8.05;;;;;;;;;;5035217;28;20180;-62
2022/04/06 04:48:15;;;;;;;37.60;8.20;;;;;;;;;;5052648;28;20081;-62
2022/04/06 04:50:41;;;;;;;29.85;7.38;;;;;;;;;;5053560;28;20094;-62
2022/04/06 04:53:07;;;;;;;30.45;7.60;;;;;;;;;;5053528;28;20142;-62
2022/04/06 04:55:34;;;;;;;25.90;7.30;;;;;;;;;;5051609;28;20572;-61
2022/04/06 04:58:00;;;;;;;28.73;7.68;;;;;;;;;;5053126;28;20156;-61
2022/04/06 05:00:27;;;;;;;26.02;7.82;;;;;;;;;;5053361;28;20048;-61
2022/04/06 05:02:53;;;;;;;32.33;7.72;;;;;;;;;;5049963;28;20041;-61
2022/04/06 05:05:19;;;;;;;31.15;9.02;;;;;;;;;;5050948;28;20079;-61
2022/04/06 05:07:45;;;;;;;28.65;7.40;;;;;;;;;;5053162;28;20037;-61
2022/04/06 05:10:11;;;;;;;39.45;8.77;;;;;;;;;;5051149;28;20045;-61
2022/04/06 05:12:38;;;;;;;35.05;7.88;;;;;;;;;;5051276;28;20072;-61
2022/04/06 05:15:12;;;;;;;35.28;8.25;;;;;;;;;;5053340;28;21857;-81
2022/04/06 05:17:38;;;;;;;32.08;9.80;;;;;;;;;;5033886;28;20049;-78
2022/04/06 05:20:06;;;;;;;33.05;7.95;;;;;;;;;;5068806;28;20045;-65
2022/04/06 05:22:32;;;;;;;31.98;9.82;;;;;;;;;;5051641;28;20659;-62
2022/04/06 05:25:00;;;;;;;37.60;9.55;;;;;;;;;;5046809;28;20041;-62
2022/04/06 05:27:26;;;;;;;34.22;8.48;;;;;;;;;;5053223;28;20045;-62
2022/04/06 05:29:52;;;;;;;37.75;8.73;;;;;;;;;;5053017;28;20408;-62
2022/04/06 05:32:18;;;;;;;31.02;7.57;;;;;;;;;;5051957;28;20072;-62
2022/04/06 05:34:44;;;;;;;29.58;8.50;;;;;;;;;;5052568;28;20041;-62
2022/04/06 05:37:28;;;;;;;;;;;;;;;;;;5053427;28;20060;-62
2022/04/06 05:39:55;;;;;;;35.13;8.75;;;;;;;;;;5036140;28;20020;-62
2022/04/06 05:42:21;;;;;;;32.75;9.95;;;;;;;;;;5047075;28;20055;-63
2022/04/06 05:44:47;;;;;;;41.60;9.18;;;;;;;;;;5036397;28;20175;-63
2022/04/06 05:47:13;;;;;;;31.38;8.82;;;;;;;;;;5064905;28;20136;-62
2022/04/06 05:49:39;;;;;;;30.00;8.43;;;;;;;;;;5049362;28;20040;-63
2022/04/06 05:52:05;;;;;;;40.92;9.07;;;;;;;;;;5051906;28;20116;-62
2022/04/06 05:54:32;;;;;;;43.20;9.32;;;;;;;;;;5051331;28;20045;-62
2022/04/06 05:56:58;;;;;;;34.40;10.30;;;;;;;;;;5050941;28;20127;-62
2022/04/06 05:59:24;;;;;;;31.27;8.25;;;;;;;;;;5051198;28;20056;-62
2022/04/06 06:01:50;;;;;;;37.60;9.07;;;;;;;;;;5052088;28;20052;-63
2022/04/06 06:04:16;;;;;;;37.10;9.20;;;;;;;;;;5067439;28;20124;-63
2022/04/06 06:06:43;;;;;;;36.75;8.27;;;;;;;;;;5065105;28;20377;-63
2022/04/06 06:09:10;;;;;;;43.33;9.32;;;;;;;;;;5051571;28;20456;-64
2022/04/06 06:11:36;;;;;;;33.50;8.43;;;;;;;;;;5052538;28;20044;-63
2022/04/06 06:14:03;;;;;;;35.00;9.35;;;;;;;;;;5050801;28;20171;-62
2022/04/06 06:16:29;;;;;;;33.97;8.10;;;;;;;;;;5035830;28;20041;-63
2022/04/06 06:18:56;;;;;;;33.45;8.13;;;;;;;;;;5061450;28;20096;-62
2022/04/06 06:21:23;;;;;;;28.95;6.88;;;;;;;;;;5043848;28;20045;-62
2022/04/06 06:23:50;;;;;;;21.48;6.53;;;;;;;;;;5047873;28;20045;-62
2022/04/06 06:26:16;;;;;;;27.10;6.35;;;;;;;;;;5050435;28;20041;-62
2022/04/06 06:28:42;;;;;;;36.97;8.98;;;;;;;;;;5053301;28;20040;-62
2022/04/06 06:31:08;;;;;;;30.17;8.00;;;;;;;;;;5030865;28;20057;-62
2022/04/06 06:33:35;;;;;;;28.00;6.25;;;;;;;;;;5052616;28;20476;-63
2022/04/06 06:36:01;;;;;;;34.95;7.13;;;;;;;;;;5064865;28;20041;-63
2022/04/06 06:38:27;;;;;;;30.35;6.45;;;;;;;;;;5049561;28;20055;-63
2022/04/06 06:40:54;;;;;;;25.88;7.53;;;;;;;;;;5052212;28;20033;-62
2022/04/06 06:43:20;;;;;;;24.65;5.68;;;;;;;;;;5051434;28;20404;-63
2022/04/06 06:45:46;;;;;;;28.25;6.75;;;;;;;;;;5051118;28;20033;-62
2022/04/06 06:48:12;;;;;;;18.20;4.80;;;;;;;;;;5062476;28;20052;-62
2022/04/06 06:50:39;;;;;;;32.55;5.65;;;;;;;;;;5048509;28;20055;-63
2022/04/06 06:53:05;;;;;;;43.35;6.85;;;;;;;;;;5058556;28;20056;-63
2022/04/06 06:55:31;;;;;;;32.58;6.03;;;;;;;;;;5059827;28;20139;-62
2022/04/06 06:57:57;;;;;;;23.17;6.05;;;;;;;;;;5047631;28;20117;-62
2022/04/06 07:00:23;;;;;;;39.72;9.25;;;;;;;;;;5047934;28;20071;-62
2022/04/06 07:02:49;;;;;;;29.42;5.80;;;;;;;;;;5046375;28;20045;-62
2022/04/06 07:05:16;;;;;;;27.50;5.82;;;;;;;;;;5046105;28;20033;-62
2022/04/06 07:07:49;;;;;;;29.23;5.85;;;;;;;;;;5047447;28;20060;-62
2022/04/06 07:10:15;;;;;;;28.30;5.65;;;;;;;;;;5045998;28;20495;-62
2022/04/06 07:12:41;;;;;;;26.08;5.38;;;;;;;;;;5047926;28;20151;-62
2022/04/06 07:15:08;;;;;;;25.17;5.30;;;;;;;;;;5048988;28;21457;-63
2022/04/06 07:17:34;;;;;;;19.20;5.80;;;;;;;;;;5046128;28;20136;-62
2022/04/06 07:20:00;;;;;;;28.85;5.63;;;;;;;;;;5029406;28;20157;-62
2022/04/06 07:22:26;;;;;;;27.08;5.18;;;;;;;;;;5044934;28;20515;-62
2022/04/06 07:24:52;;;;;;;20.65;4.88;;;;;;;;;;5045607;28;20385;-62
2022/04/06 07:27:19;;;;;;;39.13;6.95;;;;;;;;;;5045447;28;20045;-62
2022/04/06 07:29:45;;;;;;;31.52;5.43;;;;;;;;;;5027676;28;20037;-62
2022/04/06 07:32:11;;;;;;;31.83;6.38;;;;;;;;;;5030005;28;20384;-62
2022/04/06 07:34:38;;;;;;;28.50;5.28;;;;;;;;;;5047074;28;20048;-62
2022/04/06 07:37:04;;;;;;;21.90;4.55;;;;;;;;;;5059471;28;20093;-62
2022/04/06 07:39:30;;;;;;;22.48;5.28;;;;;;;;;;5060112;28;20053;-63
2022/04/06 07:41:56;;;;;;;27.67;4.97;;;;;;;;;;5060895;28;20057;-62
2022/04/06 07:44:23;;;;;;;22.00;5.28;;;;;;;;;;5030319;28;20060;-62
2022/04/06 07:46:50;;;;;;;27.90;6.07;;;;;;;;;;5050448;28;20055;-62
2022/04/06 07:49:17;;;;;;;26.23;5.72;;;;;;;;;;5032376;28;20106;-62
2022/04/06 07:51:43;;;;;;;32.63;5.65;;;;;;;;;;5051169;28;20056;-63
2022/04/06 07:54:10;;;;;;;27.58;4.50;;;;;;;;;;5053440;28;20087;-62
2022/04/06 07:56:37;;;;;;;24.75;5.50;;;;;;;;;;5050734;28;20040;-63
2022/04/06 07:59:03;;;;;;;27.77;5.88;;;;;;;;;;5049534;28;20124;-62
2022/04/06 08:01:29;;;;;;;21.23;4.47;;;;;;;;;;5050685;28;20154;-62
2022/04/06 08:03:55;;;;;;;21.55;5.10;;;;;;;;;;5054616;28;20373;-62
2022/04/06 08:06:24;;;;;;;25.17;7.07;;;;;;;;;;5052272;28;20439;-71
2022/04/06 08:08:52;;;;;;;28.67;5.20;;;;;;;;;;5054842;28;20115;-63
2022/04/06 08:11:19;;;;;;;28.42;5.50;;;;;;;;;;5052727;28;20449;-62
2022/04/06 08:13:45;;;;;;;25.88;4.50;;;;;;;;;;5052861;28;20045;-62
2022/04/06 08:16:11;;;;;;;26.25;4.82;;;;;;;;;;5054202;28;20068;-62
2022/04/06 08:18:37;;;;;;;24.15;4.53;;;;;;;;;;5054264;28;20059;-62
2022/04/06 08:21:05;;;;;;;27.85;5.32;;;;;;;;;;5053443;28;20376;-62
2022/04/06 08:23:31;;;;;;;21.77;5.30;;;;;;;;;;5054309;28;20045;-62
2022/04/06 08:25:58;;;;;;;22.10;5.00;;;;;;;;;;5053886;28;20504;-62
2022/04/06 08:28:24;;;;;;;22.52;4.88;;;;;;;;;;5053340;28;20041;-62
2022/04/06 08:30:50;;;;;;;17.30;4.45;;;;;;;;;;5036298;28;20041;-62
2022/04/06 08:33:16;;;;;;;20.80;4.03;;;;;;;;;;5068534;28;20388;-63
2022/04/06 08:35:43;;;;;;;22.13;4.63;;;;;;;;;;5017074;28;20146;-63
2022/04/06 08:38:14;;;;;;;25.25;4.30;;;;;;;;;;5014128;28;20042;-62
2022/04/06 08:40:42;;;;;;;27.15;6.00;;;;;;;;;;5044971;28;20501;-62
2022/04/06 08:43:09;;;;;;;20.83;5.35;;;;;;;;;;5014472;28;20064;-62
2022/04/06 08:45:36;;;;;;;21.38;3.88;;;;;;;;;;5042966;28;20050;-63
2022/04/06 08:48:04;;;;;;;24.73;4.20;;;;;;;;;;5011894;28;20393;-63
2022/04/06 08:50:30;;;;;;;24.90;4.95;;;;;;;;;;5012498;28;20053;-63
2022/04/06 08:52:57;;;;;;;23.40;4.20;;;;;;;;;;5044719;28;20041;-63
2022/04/06 08:55:23;;;;;;;17.23;3.65;;;;;;;;;;5012605;28;20119;-63
2022/04/06 08:57:49;;;;;;;20.35;4.30;;;;;;;;;;5045701;28;20099;-63
2022/04/06 09:00:17;;;;;;;19.67;4.45;;;;;;;;;;5013381;28;20046;-63
2022/04/06 09:02:44;;;;;;;19.58;4.38;;;;;;;;;;5011500;28;20080;-63
2022/04/06 09:05:11;;;;;;;19.90;4.00;;;;;;;;;;5013843;28;20171;-63
2022/04/06 09:07:39;;;;;;;16.83;3.95;;;;;;;;;;5061592;28;20053;-63
2022/04/06 09:10:05;;;;;;;24.77;4.70;;;;;;;;;;5012885;28;20161;-63
2022/04/06 09:12:31;;;;;;;18.92;3.53;;;;;;;;;;5040991;28;20037;-63
2022/04/06 09:15:05;;;;;;;20.67;4.28;;;;;;;;;;5012000;28;20045;-63
2022/04/06 09:17:31;;;;;;;23.52;4.15;;;;;;;;;;5044560;28;20125;-63
2022/04/06 09:19:59;;;;;;;23.42;4.70;;;;;;;;;;5012456;28;20070;-63
2022/04/06 09:22:26;;;;;;;20.73;4.90;;;;;;;;;;5012257;28;20045;-63
2022/04/06 09:24:58;;;;;;;24.88;4.55;;;;;;;;;;5045353;28;20037;-63
2022/04/06 09:27:29;;;;;;;20.45;4.25;;;;;;;;;;5013191;28;20117;-63
2022/04/06 09:29:55;;;;;;;14.40;3.65;;;;;;;;;;5044466;28;20390;-63
2022/04/06 09:32:21;;;;;;;20.25;3.42;;;;;;;;;;5012886;28;20580;-63
2022/04/06 09:34:47;;;;;;;19.58;3.88;;;;;;;;;;5029430;28;20081;-63
2022/04/06 09:37:23;;;;;;;18.05;4.15;;;;;;;;;;5051920;28;20145;-63
2022/04/06 09:39:49;;;;;;;27.95;4.75;;;;;;;;;;5068275;28;20059;-63
2022/04/06 09:42:20;;;;;;;21.15;4.30;;;;;;;;;;5052790;28;20040;-63
2022/04/06 09:47:40;;;;;;;21.80;4.57;;;;;;;;;;5052652;28;20041;-63
2022/04/06 09:50:08;;;;;;;18.92;4.47;;;;;;;;;;5052677;28;20079;-63
2022/04/06 09:52:36;;;;;;;21.85;4.35;;;;;;;;;;5067070;28;20393;-62
2022/04/06 09:55:06;;;;;;;23.10;5.38;;;;;;;;;;5052108;28;20511;-63
2022/04/06 09:57:35;;;;;;;21.67;4.65;;;;;;;;;;5052581;28;20040;-63
2022/04/06 10:00:02;;;;;;;18.10;4.75;;;;;;;;;;5052410;28;20047;-63
2022/04/06 10:02:28;;;;;;;25.33;4.95;;;;;;;;;;5034769;28;20045;-63
2022/04/06 10:04:56;;;;;;;26.67;4.50;;;;;;;;;;5049375;28;20340;-63
2022/04/06 10:07:23;;;;;;;18.25;4.50;;;;;;;;;;5039566;28;20060;-63
2022/04/06 10:09:51;;;;;;;20.17;4.70;;;;;;;;;;5041862;28;20120;-63
2022/04/06 10:12:17;;;;;;;24.13;4.47;;;;;;;;;;5021529;28;20041;-63
2022/04/06 10:14:44;;;;;;;22.80;4.45;;;;;;;;;;5050072;28;20076;-63
2022/04/06 10:17:10;;;;;;;22.55;5.18;;;;;;;;;;5032982;28;20109;-63
2022/04/06 10:19:40;;;;;;;19.50;4.68;;;;;;;;;;5030822;28;20542;-63
2022/04/06 10:22:11;;;;;;;20.65;4.07;;;;;;;;;;5068288;28;20088;-63
2022/04/06 10:24:58;;;;;;;25.73;5.35;;;;;;;;;;5053108;28;20113;-63
2022/04/06 10:27:27;;;;;;;32.05;5.88;;;;;;;;;;5052317;28;20041;-64
2022/04/06 10:30:11;;;;;;;19.27;4.18;;;;;;;;;;5068033;28;20092;-62
2022/04/06 10:32:38;;;;;;;26.00;5.25;;;;;;;;;;5034980;28;20106;-63
2022/04/06 10:35:21;;;;;;;25.20;5.38;;;;;;;;;;5051955;28;20048;-63
2022/04/06 10:37:51;;;;;;;20.67;5.03;;;;;;;;;;5068310;28;20049;-63
2022/04/06 10:40:17;;;;;;;17.33;3.92;;;;;;;;;;5052136;28;20033;-63
2022/04/06 10:42:46;;;;;;;24.67;4.90;;;;;;;;;;5052438;28;20041;-63
2022/04/06 10:45:26;;;;;;;19.45;5.03;;;;;;;;;;5052743;28;20590;-62
2022/04/06 10:48:11;;;;;;;21.90;4.32;;;;;;;;;;5051579;28;20120;-63
2022/04/06 10:50:38;;;;;;;23.67;4.82;;;;;;;;;;5051447;28;20110;-63
2022/04/06 10:53:19;;;;;;;16.52;4.25;;;;;;;;;;5066707;28;20107;-63
2022/04/06 10:56:05;;;;;;;20.55;4.68;;;;;;;;;;5028199;28;20059;-62
2022/04/06 10:59:07;;;;;;;17.52;4.25;;;;;;;;;;5051195;28;20041;-63
2022/04/06 11:01:34;;;;;;;16.50;4.18;;;;;;;;;;5032037;28;20433;-63
2022/04/06 11:04:03;;;;;;;19.58;3.90;;;;;;;;;;5051127;28;20051;-62
2022/04/06 11:06:48;;;;;;;21.42;4.72;;;;;;;;;;5051290;28;20040;-62
2022/04/06 11:12:13;;;;;;;26.13;4.60;;;;;;;;;;5051367;28;20132;-63
2022/04/06 11:14:39;;;;;;;20.38;4.45;;;;;;;;;;5052176;28;20766;-63
2022/04/06 11:17:24;;;;;;;21.00;4.53;;;;;;;;;;5051459;28;20036;-63
2022/04/06 11:19:51;;;;;;;21.20;4.88;;;;;;;;;;5067360;28;20465;-63
2022/04/06 11:22:17;;;;;;;16.52;4.35;;;;;;;;;;5051340;28;20714;-63
2022/04/06 11:24:44;;;;;;;18.48;3.65;;;;;;;;;;5052390;28;20097;-63
2022/04/06 11:27:10;;;;;;;17.77;3.92;;;;;;;;;;5051991;28;20127;-63
2022/04/06 11:29:37;;;;;;;21.88;3.70;;;;;;;;;;5050907;28;20045;-62
2022/04/06 11:32:04;;;;;;;21.20;4.40;;;;;;;;;;5033254;28;20052;-62
2022/04/06 11:34:35;;;;;;;22.42;5.00;;;;;;;;;;5050788;28;20127;-62
2022/04/06 11:37:03;;;;;;;22.40;4.07;;;;;;;;;;5050134;28;20053;-62
2022/04/06 11:39:30;;;;;;;20.25;4.25;;;;;;;;;;5032580;28;20041;-62
2022/04/06 11:41:57;;;;;;;17.45;4.13;;;;;;;;;;5050908;28;20378;-62
2022/04/06 11:44:24;;;;;;;15.63;4.68;;;;;;;;;;5049761;28;20044;-62
2022/04/06 11:46:52;;;;;;;20.92;4.47;;;;;;;;;;5050476;28;20128;-62
2022/04/06 11:49:20;;;;;;;20.00;4.50;;;;;;;;;;5050633;28;20123;-62
2022/04/06 11:51:47;;;;;;;20.25;4.80;;;;;;;;;;5049953;28;20049;-62
2022/04/06 11:54:14;;;;;;;21.92;5.70;;;;;;;;;;5050852;28;20503;-62
2022/04/06 11:56:41;;;;;;;26.98;5.30;;;;;;;;;;5050678;28;20116;-62
2022/04/06 11:59:10;;;;;;;19.80;5.20;;;;;;;;;;5045696;28;20037;-62
2022/04/06 12:01:42;;;;;;;21.83;4.50;;;;;;;;;;5050445;28;20076;-61
2022/04/06 12:04:18;;;;;;;30.10;6.20;;;;;;;;;;5050593;28;20044;-62
2022/04/06 12:06:45;;;;;;;19.65;4.20;;;;;;;;;;5044416;28;20162;-62
2022/04/06 12:09:12;;;;;;;20.60;4.38;;;;;;;;;;5050055;28;20388;-62
2022/04/06 12:11:39;;;;;;;19.85;5.05;;;;;;;;;;5049455;28;20077;-62
2022/04/06 12:14:10;;;;;;;21.38;4.93;;;;;;;;;;5051256;28;20397;-62
2022/04/06 12:16:37;;;;;;;21.27;4.10;;;;;;;;;;5051427;28;20516;-61
2022/04/06 12:19:05;;;;;;;20.42;4.78;;;;;;;;;;5050775;28;20118;-61
2022/04/06 12:21:32;;;;;;;21.80;5.45;;;;;;;;;;5051393;28;20114;-62
2022/04/06 12:23:58;;;;;;;21.48;4.78;;;;;;;;;;5017174;28;20052;-62
2022/04/06 12:26:25;;;;;;;22.30;4.28;;;;;;;;;;5050557;28;20049;-62
2022/04/06 12:28:58;;;;;;;19.45;4.65;;;;;;;;;;5051411;28;20052;-62
2022/04/06 12:31:33;;;;;;;24.83;4.65;;;;;;;;;;5061100;28;20048;-62
2022/04/06 12:33:59;;;;;;;25.27;4.55;;;;;;;;;;5054386;28;20052;-63
2022/04/06 12:36:27;;;;;;;16.65;4.32;;;;;;;;;;5055307;28;20040;-61
2022/04/06 12:38:57;;;;;;;17.35;4.65;;;;;;;;;;5054870;28;20191;-61
2022/04/06 12:41:25;;;;;;;24.00;5.93;;;;;;;;;;5054122;28;20075;-62
2022/04/06 12:43:51;;;;;;;24.92;5.88;;;;;;;;;;5054394;28;20049;-63
2022/04/06 12:46:37;;;;;;;26.83;5.32;;;;;;;;;;5035918;28;20377;-62
2022/04/06 12:49:20;;;;;;;26.65;4.72;;;;;;;;;;5035939;28;20103;-62
2022/04/06 12:51:46;;;;;;;19.80;5.20;;;;;;;;;;5054134;28;20049;-62
2022/04/06 12:54:13;;;;;;;24.08;4.45;;;;;;;;;;5051787;28;20098;-63
2022/04/06 12:56:59;;;;;;;26.17;5.20;;;;;;;;;;5064266;28;20090;-62
2022/04/06 12:59:35;;;;;;;22.77;4.72;;;;;;;;;;5047378;28;20053;-62
2022/04/06 13:02:02;;;;;;;21.10;5.20;;;;;;;;;;5031781;28;20400;-62
2022/04/06 13:04:28;;;;;;;19.50;4.18;;;;;;;;;;5014345;28;20045;-62
2022/04/06 13:06:55;;;;;;;21.73;5.32;;;;;;;;;;5029086;28;20040;-62
2022/04/06 13:09:21;;;;;;;22.23;4.60;;;;;;;;;;5031045;28;20062;-62
2022/04/06 13:11:47;;;;;;;21.70;5.30;;;;;;;;;;5048748;28;20044;-62
2022/04/06 13:14:14;;;;;;;20.33;4.57;;;;;;;;;;5051521;28;20052;-62
2022/04/06 13:16:40;;;;;;;21.45;4.35;;;;;;;;;;5064142;28;20045;-62
2022/04/06 13:19:07;;;;;;;19.00;4.05;;;;;;;;;;5051967;28;20392;-62
2022/04/06 13:21:33;;;;;;;23.15;4.93;;;;;;;;;;5049840;28;20057;-62
2022/04/06 13:24:02;;;;;;;25.90;4.95;;;;;;;;;;5030978;28;20425;-62
2022/04/06 13:26:28;;;;;;;19.27;3.72;;;;;;;;;;5047350;28;20045;-62
2022/04/06 13:28:54;;;;;;;20.98;4.25;;;;;;;;;;5033277;28;20745;-62
2022/04/06 13:31:20;;;;;;;26.27;4.97;;;;;;;;;;5047714;28;20461;-63
2022/04/06 13:33:46;;;;;;;17.42;4.28;;;;;;;;;;5034158;28;20182;-62
2022/04/06 13:36:13;;;;;;;20.77;4.75;;;;;;;;;;5060787;28;20076;-62
2022/04/06 13:38:39;;;;;;;19.00;3.33;;;;;;;;;;5048327;28;20045;-62
2022/04/06 13:41:05;;;;;;;20.08;4.72;;;;;;;;;;5048684;28;20076;-62
2022/04/06 13:43:31;;;;;;;16.30;3.47;;;;;;;;;;5046754;28;20037;-62
2022/04/06 13:45:57;;;;;;;17.27;3.63;;;;;;;;;;5046247;28;20159;-62
2022/04/06 13:48:24;;;;;;;12.18;2.72;;;;;;;;;;5045979;28;20745;-62
2022/04/06 13:50:51;;;;;;;15.45;3.53;;;;;;;;;;5049390;28;20094;-62
2022/04/06 13:53:17;;;;;;;12.60;3.38;;;;;;;;;;5047644;28;20041;-61
2022/04/06 13:55:43;;;;;;;23.85;6.07;;;;;;;;;;5043662;28;20059;-62
2022/04/06 13:58:11;;;;;;;14.70;3.35;;;;;;;;;;5028615;28;20503;-62
2022/04/06 14:00:37;;;;;;;14.55;3.78;;;;;;;;;;5049039;28;20621;-63
2022/04/06 14:03:03;;;;;;;19.65;4.30;;;;;;;;;;5049426;28;20037;-62
2022/04/06 14:05:31;;;;;;;17.65;3.90;;;;;;;;;;5029880;28;20096;-62
2022/04/06 14:07:58;;;;;;;17.98;3.53;;;;;;;;;;5047524;28;20099;-62
2022/04/06 14:10:24;;;;;;;11.82;3.00;;;;;;;;;;5029401;28;20036;-63
2022/04/06 14:12:51;;;;;;;12.30;3.03;;;;;;;;;;5045100;28;20048;-62
2022/04/06 14:15:17;;;;;;;14.68;3.55;;;;;;;;;;5028361;28;20037;-61
2022/04/06 14:17:44;;;;;;;9.82;2.85;;;;;;;;;;5056503;28;20048;-62
2022/04/06 14:20:11;;;;;;;11.85;3.28;;;;;;;;;;5062072;28;20056;-62
2022/04/06 14:22:37;;;;;;;10.07;3.10;;;;;;;;;;5048174;28;20041;-61
2022/04/06 14:25:17;;;;;;;10.88;3.40;;;;;;;;;;5026734;28;20120;-61
2022/04/06 14:27:44;;;;;;;12.32;3.78;;;;;;;;;;5067182;28;20407;-61
2022/04/06 14:30:11;;;;;;;10.00;2.97;;;;;;;;;;5048238;28;20033;-62
2022/04/06 14:32:37;;;;;;;13.88;3.70;;;;;;;;;;5050357;28;20095;-62
2022/04/06 14:35:03;;;;;;;14.30;3.72;;;;;;;;;;5063808;28;20053;-62
2022/04/06 14:37:29;;;;;;;17.50;5.18;;;;;;;;;;5031570;28;20049;-62
2022/04/06 14:39:55;;;;;;;16.85;4.20;;;;;;;;;;5030840;28;20042;-62
2022/04/06 14:42:22;;;;;;;12.02;4.68;;;;;;;;;;5031873;28;20053;-62